KBKE/BKE METAR and TAF weather

Enter ICAO airport designator
Station Type Date Time Source
KBKE METAR 2022/06/30 01:53 UTC NOAA

KBKE 300153Z AUTO 33009KT 10SM CLR 23/08 A3008 RMK AO2 SLP168 T02280083


Station Type Date Time Source
KBKE Decoded METAR 2022/06/30 01:53 UTC NOAA

BAKER MUNICIPAL AIRPORT, OR, United States (KBKE) 44-50N 117-49W 1024M
Jun 29, 2022 - 09:53 PM EDT / 2022.06.30 0153 UTC
Wind: from the NNW (330 degrees) at 10 MPH (9 KT):0
Visibility: 10 mile(s):0
Sky conditions: clear
Temperature: 73.0 F (22.8 C)
Dew Point: 46.9 F (8.3 C)
Relative Humidity: 39%
Pressure (altimeter): 30.08 in. Hg (1018 hPa)
ob: KBKE 300153Z AUTO 33009KT 10SM CLR 23/08 A3008 RMK AO2 SLP168 T02280083
cycle: 2

Station Type Date Time Source
KBKE TAF 2022/06/29 18:34 UTC NOAA

TAF KBKE 291732Z 2918/3018 VRB03KT P6SM SCT200
FM292200 32010KT P6SM FEW200
FM300600 VRB04KT P6SM SKC

Example: see airport list